Time;durP1;ratioP1;P1;durP2;ratioP2;P2;SDS_P1;SDS_P2;PMS_P1;PMS_P2;Temp;Humidity;BMP_temperature;BMP_pressure;BME280_temperature;BME280_humidity;BME280_pressure;Samples;Min_cycle;Max_cycle;Signal;HPM_P1;HPM_P2
2023/07/13 00:00:34;;;;;;;9.85;1.20;;;16.90;99.90;;;;;;5046637;28;20040;-89
2023/07/13 00:02:59;;;;;;;4.38;1.67;;;15.80;99.90;;;;;;5031546;28;20569;-90
2023/07/13 00:05:26;;;;;;;12.10;1.77;;;16.80;99.90;;;;;;5029971;28;20106;-88
2023/07/13 00:07:54;;;;;;;5.45;1.30;;;16.80;99.90;;;;;;4998061;28;20048;-88
2023/07/13 00:10:21;;;;;;;5.38;1.42;;;15.80;99.90;;;;;;5030310;28;20147;-89
2023/07/13 00:12:50;;;;;;;10.25;1.70;;;16.80;99.90;;;;;;4998468;28;20051;-89
2023/07/13 00:15:22;;;;;;;7.72;1.52;;;16.80;99.90;;;;;;5047470;28;20500;-88
2023/07/13 00:17:49;;;;;;;7.97;1.17;;;16.80;99.90;;;;;;5046417;28;20572;-90
2023/07/13 00:20:15;;;;;;;6.63;1.77;;;16.80;99.90;;;;;;5014101;28;20487;-89
2023/07/13 00:22:41;;;;;;;11.60;1.98;;;16.80;99.90;;;;;;5046392;28;20040;-88
2023/07/13 00:25:12;;;;;;;5.03;1.42;;;16.80;99.90;;;;;;5030464;28;20047;-87
2023/07/13 00:27:38;;;;;;;6.90;1.25;;;16.80;99.90;;;;;;5030642;28;20075;-88
2023/07/13 00:30:05;;;;;;;10.30;1.52;;;16.80;99.90;;;;;;5029502;28;20137;-88
2023/07/13 00:32:31;;;;;;;4.47;1.80;;;16.70;99.90;;;;;;5030520;28;20099;-88
2023/07/13 00:34:58;;;;;;;8.85;1.30;;;16.70;99.90;;;;;;5029230;28;20170;-88
2023/07/13 00:37:24;;;;;;;8.63;1.55;;;16.70;99.90;;;;;;5030838;28;20462;-90
2023/07/13 00:39:50;;;;;;;7.80;1.45;;;14.80;99.90;;;;;;5013284;28;20144;-88
2023/07/13 00:42:24;;;;;;;4.90;1.48;;;16.70;99.90;;;;;;5031561;28;20113;-87
2023/07/13 00:45:15;;;;;;;10.88;1.40;;;16.70;99.90;;;;;;5049625;28;20484;-88
2023/07/13 00:47:41;;;;;;;5.97;1.33;;;16.70;99.90;;;;;;5030347;28;20492;-88
2023/07/13 00:50:10;;;;;;;11.77;1.70;;;16.70;99.90;;;;;;5047598;28;20098;-88
2023/07/13 00:52:40;;;;;;;8.65;2.65;;;16.70;99.90;;;;;;5030866;28;20511;-88
2023/07/13 00:55:07;;;;;;;8.70;1.45;;;16.60;99.90;;;;;;5051729;28;20057;-88
2023/07/13 00:57:33;;;;;;;8.43;1.20;;;16.60;99.90;;;;;;5050888;28;20048;-87
2023/07/13 01:00:06;;;;;;;9.43;1.60;;;16.60;99.90;;;;;;5051238;28;20098;-88
2023/07/13 01:02:35;;;;;;;8.50;1.85;;;16.50;99.90;;;;;;5050880;28;20044;-88
2023/07/13 01:05:01;;;;;;;12.27;2.22;;;16.50;99.90;;;;;;5034103;28;20431;-89
2023/07/13 01:07:27;;;;;;;7.10;1.63;;;16.50;99.90;;;;;;5034295;28;20041;-88
2023/07/13 01:09:53;;;;;;;12.75;1.90;;;16.50;99.90;;;;;;5016901;28;20581;-88
2023/07/13 01:12:19;;;;;;;6.75;1.65;;;16.50;99.90;;;;;;5034095;28;20040;-87
2023/07/13 01:14:44;;;;;;;4.85;1.55;;;16.50;99.90;;;;;;5033598;28;20178;-88
2023/07/13 01:17:11;;;;;;;7.40;1.83;;;16.50;99.90;;;;;;5050568;28;20084;-90
2023/07/13 01:19:42;;;;;;;6.30;1.35;;;16.40;99.90;;;;;;5035674;28;20048;-90
2023/07/13 01:22:11;;;;;;;5.65;1.58;;;14.40;99.90;;;;;;5035109;28;20040;-90
2023/07/13 01:24:41;;;;;;;8.98;1.30;;;16.40;99.90;;;;;;5050803;28;20048;-87
2023/07/13 01:27:08;;;;;;;7.20;2.03;;;16.40;99.90;;;;;;5050260;28;20513;-87
2023/07/13 01:29:41;;;;;;;7.65;2.25;;;16.40;99.90;;;;;;5050804;28;20048;-87
2023/07/13 01:32:14;;;;;;;11.27;1.98;;;16.40;99.90;;;;;;5034820;28;20352;-88
2023/07/13 01:34:44;;;;;;;16.60;2.72;;;16.40;99.90;;;;;;5049496;28;20348;-87
2023/07/13 01:37:11;;;;;;;7.97;1.48;;;16.30;99.90;;;;;;5034296;28;20055;-89
2023/07/13 01:39:38;;;;;;;12.30;2.10;;;16.10;99.90;;;;;;5049323;28;20055;-87
2023/07/13 01:42:04;;;;;;;15.38;2.30;;;16.40;99.90;;;;;;5050253;28;20084;-87
2023/07/13 01:44:29;;;;;;;8.68;2.03;;;16.30;99.90;;;;;;5033648;28;20125;-88
2023/07/13 01:46:56;;;;;;;7.13;1.63;;;16.30;99.90;;;;;;5017149;28;20207;-89
2023/07/13 01:49:22;;;;;;;6.53;1.63;;;16.30;99.90;;;;;;5034367;28;20083;-89
2023/07/13 01:51:48;;;;;;;12.68;2.15;;;16.40;99.90;;;;;;5049666;28;20491;-87
2023/07/13 01:54:13;;;;;;;8.68;2.00;;;16.30;99.90;;;;;;5035159;28;20055;-89
2023/07/13 01:56:41;;;;;;;7.97;1.65;;;16.30;99.90;;;;;;5050696;28;20492;-88
2023/07/13 01:59:08;;;;;;;5.60;1.58;;;16.40;99.90;;;;;;5039508;28;20045;-90
2023/07/13 02:01:34;;;;;;;9.52;1.27;;;16.40;99.90;;;;;;5027724;28;20075;-88
2023/07/13 02:04:00;;;;;;;6.38;1.40;;;16.40;99.90;;;;;;5045606;28;20049;-89
2023/07/13 02:06:26;;;;;;;10.02;1.50;;;16.40;99.90;;;;;;5014964;28;20076;-88
2023/07/13 02:08:52;;;;;;;9.30;1.23;;;16.40;99.90;;;;;;5060257;28;20048;-88
2023/07/13 02:11:17;;;;;;;6.38;1.30;;;16.40;99.90;;;;;;5025648;28;20075;-90
2023/07/13 02:13:43;;;;;;;6.57;1.40;;;16.40;99.90;;;;;;5040530;28;20477;-88
2023/07/13 02:16:09;;;;;;;4.05;0.90;;;16.30;99.90;;;;;;5028734;28;20067;-90
2023/07/13 02:18:35;;;;;;;2.90;0.95;;;16.40;99.90;;;;;;5035258;28;20140;-89
2023/07/13 02:21:00;;;;;;;6.07;1.40;;;16.30;99.90;;;;;;5038883;28;20040;-89
2023/07/13 02:23:26;;;;;;;5.15;1.70;;;16.40;99.90;;;;;;5053016;28;20040;-89
2023/07/13 02:26:00;;;;;;;3.88;0.93;;;16.20;99.90;;;;;;5034974;28;20041;-91
2023/07/13 02:28:26;;;;;;;7.32;1.95;;;16.30;99.90;;;;;;5052643;28;20080;-89
2023/07/13 02:30:51;;;;;;;5.50;1.33;;;16.20;99.90;;;;;;5038533;28;20055;-90
2023/07/13 02:33:17;;;;;;;6.82;1.40;;;16.20;99.90;;;;;;5018229;28;20127;-90
2023/07/13 02:35:43;;;;;;;6.55;1.27;;;16.20;99.90;;;;;;5017900;28;20048;-90
2023/07/13 02:38:09;;;;;;;4.32;2.03;;;16.20;99.90;;;;;;5050286;28;20044;-88
2023/07/13 02:40:35;;;;;;;4.70;1.05;;;16.20;99.90;;;;;;5033752;28;20059;-89
2023/07/13 02:43:01;;;;;;;11.18;1.25;;;16.20;99.90;;;;;;5033105;28;20044;-90
2023/07/13 02:45:27;;;;;;;7.22;1.42;;;16.10;99.90;;;;;;5050122;28;20049;-89
2023/07/13 02:47:53;;;;;;;7.25;1.23;;;16.10;99.90;;;;;;5001499;28;20333;-90
2023/07/13 02:50:19;;;;;;;5.32;1.23;;;16.10;99.90;;;;;;5037074;28;20103;-90
2023/07/13 02:52:44;;;;;;;10.85;1.10;;;16.10;99.90;;;;;;5032930;28;20503;-89
2023/07/13 02:55:12;;;;;;;5.00;1.20;;;16.00;99.90;;;;;;5033667;28;20072;-89
2023/07/13 02:57:37;;;;;;;8.32;1.73;;;16.00;99.90;;;;;;5033266;28;20044;-89
2023/07/13 03:00:07;;;;;;;6.45;1.23;;;15.50;99.90;;;;;;5049698;28;20045;-90
2023/07/13 03:02:34;;;;;;;3.97;1.30;;;16.00;99.90;;;;;;5017380;28;20043;-90
2023/07/13 03:05:00;;;;;;;7.95;1.63;;;16.00;99.90;;;;;;5049697;28;20745;-90
2023/07/13 03:07:26;;;;;;;5.03;1.77;;;16.00;99.90;;;;;;5019173;28;20046;-89
2023/07/13 03:09:56;;;;;;;5.20;1.80;;;16.00;99.90;;;;;;5019137;28;20123;-89
2023/07/13 03:12:22;;;;;;;5.93;2.67;;;16.00;99.90;;;;;;5040108;28;20070;-90
2023/07/13 03:14:48;;;;;;;11.50;2.28;;;15.90;99.90;;;;;;5059568;28;20051;-90
2023/07/13 03:17:14;;;;;;;9.40;1.60;;;16.00;99.90;;;;;;5039387;28;20040;-86
2023/07/13 03:19:39;;;;;;;7.82;2.20;;;16.00;99.90;;;;;;5034768;28;20044;-88
2023/07/13 03:22:05;;;;;;;6.65;2.75;;;15.90;99.90;;;;;;5033685;28;20053;-87
2023/07/13 03:24:33;;;;;;;11.35;2.38;;;15.90;99.90;;;;;;5034664;28;20136;-87
2023/07/13 03:27:04;;;;;;;12.73;2.83;;;15.90;99.90;;;;;;5033644;28;20037;-88
2023/07/13 03:29:30;;;;;;;7.57;1.98;;;15.90;99.90;;;;;;5032134;28;20041;-89
2023/07/13 03:31:56;;;;;;;19.38;3.15;;;15.90;99.90;;;;;;5032203;28;20036;-86
2023/07/13 03:34:21;;;;;;;9.88;2.00;;;15.90;99.90;;;;;;5030861;28;20134;-88
2023/07/13 03:36:47;;;;;;;10.90;2.95;;;18.20;99.90;;;;;;4999314;28;20044;-87
2023/07/13 03:39:13;;;;;;;14.90;2.65;;;16.00;99.90;;;;;;5030105;28;20511;-89
2023/07/13 03:41:39;;;;;;;7.97;2.63;;;15.90;99.90;;;;;;5053804;28;20049;-90
2023/07/13 03:44:05;;;;;;;12.20;2.35;;;17.60;99.90;;;;;;5017492;28;20413;-92
2023/07/13 03:46:31;;;;;;;8.23;2.45;;;16.00;99.90;;;;;;5033539;28;20408;-91
2023/07/13 03:48:57;;;;;;;10.98;2.53;;;15.90;99.90;;;;;;5015708;28;20487;-89
2023/07/13 03:51:23;;;;;;;8.02;2.08;;;16.00;99.90;;;;;;5015426;28;20044;-87
2023/07/13 03:53:49;;;;;;;12.15;3.17;;;16.00;99.90;;;;;;5032369;28;20055;-89
2023/07/13 03:56:18;;;;;;;10.70;2.47;;;16.00;99.90;;;;;;5015568;28;21016;-88
2023/07/13 03:58:46;;;;;;;9.80;2.22;;;16.00;99.90;;;;;;5033636;28;20049;-88
2023/07/13 04:01:13;;;;;;;8.07;2.00;;;16.00;99.90;;;;;;5049460;28;20432;-88
2023/07/13 04:03:40;;;;;;;10.55;2.10;;;16.00;99.90;;;;;;5035340;28;20052;-89
2023/07/13 04:06:11;;;;;;;13.45;2.88;;;16.00;99.90;;;;;;5034645;28;20040;-88
2023/07/13 04:08:37;;;;;;;14.25;2.03;;;16.00;99.90;;;;;;5053668;28;20048;-89
2023/07/13 04:11:04;;;;;;;5.85;2.08;;;16.00;99.90;;;;;;5037719;28;20052;-89
2023/07/13 04:13:30;;;;;;;10.00;1.95;;;16.00;99.90;;;;;;5019978;28;20052;-88
2023/07/13 04:15:56;;;;;;;11.85;2.25;;;16.00;99.90;;;;;;5054316;28;20052;-88
2023/07/13 04:18:22;;;;;;;14.13;2.35;;;16.00;99.90;;;;;;5040994;28;20044;-89
2023/07/13 04:20:49;;;;;;;14.48;3.08;;;16.00;99.90;;;;;;5040092;28;20046;-88
2023/07/13 04:23:16;;;;;;;6.13;2.03;;;16.00;99.90;;;;;;5059707;28;20484;-92
2023/07/13 04:25:49;;;;;;;7.93;2.53;;;16.00;99.90;;;;;;5042080;28;20080;-89
2023/07/13 04:28:17;;;;;;;10.13;3.03;;;16.00;99.90;;;;;;5025520;28;20080;-86
2023/07/13 04:30:43;;;;;;;19.15;2.72;;;16.00;99.90;;;;;;5039920;28;20510;-92
2023/07/13 04:33:09;;;;;;;6.22;2.05;;;16.00;99.90;;;;;;5022367;28;20045;-88
2023/07/13 04:35:35;;;;;;;7.85;1.83;;;16.00;99.90;;;;;;5035934;28;20036;-90
2023/07/13 04:38:01;;;;;;;9.35;2.25;;;16.10;99.90;;;;;;5004813;28;20122;-91
2023/07/13 04:40:28;;;;;;;8.75;2.17;;;16.10;99.90;;;;;;5021190;28;20142;-91
2023/07/13 04:42:53;;;;;;;8.80;1.88;;;16.30;99.90;;;;;;5054655;28;20045;-91
2023/07/13 04:45:19;;;;;;;12.30;2.55;;;16.10;99.90;;;;;;5039284;28;20371;-91
2023/07/13 04:47:45;;;;;;;9.05;1.98;;;16.10;99.90;;;;;;5035157;28;20052;-88
2023/07/13 04:50:18;;;;;;;4.70;1.85;;;16.20;99.90;;;;;;5033860;28;20079;-86
2023/07/13 04:52:44;;;;;;;7.72;2.40;;;16.20;99.90;;;;;;5031509;28;20051;-86
2023/07/13 04:55:10;;;;;;;10.23;2.50;;;16.20;99.90;;;;;;5031653;28;20127;-86
2023/07/13 04:57:36;;;;;;;5.50;2.03;;;16.30;99.90;;;;;;5014218;28;20057;-85
2023/07/13 05:00:06;;;;;;;11.63;1.90;;;16.30;99.90;;;;;;5047356;28;20048;-87
2023/07/13 05:02:32;;;;;;;6.65;2.35;;;16.30;99.90;;;;;;5031366;28;20047;-87
2023/07/13 05:04:58;;;;;;;10.52;2.22;;;16.40;99.90;;;;;;5047185;28;20500;-88
2023/07/13 05:07:25;;;;;;;8.82;2.33;;;16.50;99.90;;;;;;5048408;28;20376;-90
2023/07/13 05:09:51;;;;;;;13.85;2.33;;;16.50;99.90;;;;;;5047104;28;20032;-86
2023/07/13 05:12:17;;;;;;;12.88;2.92;;;16.60;99.90;;;;;;5048785;28;20048;-88
2023/07/13 05:14:42;;;;;;;11.13;3.65;;;16.60;99.90;;;;;;5052024;28;20040;-89
2023/07/13 05:17:08;;;;;;;9.13;2.25;;;16.70;99.90;;;;;;5018148;28;20128;-90
2023/07/13 05:19:35;;;;;;;12.25;2.20;;;16.70;99.90;;;;;;5033289;28;20132;-90
2023/07/13 05:22:02;;;;;;;6.88;2.20;;;16.70;99.90;;;;;;5033627;28;20072;-91
2023/07/13 05:24:28;;;;;;;13.25;2.53;;;16.80;99.90;;;;;;5018497;28;20063;-91
2023/07/13 05:26:53;;;;;;;7.18;2.47;;;16.80;99.90;;;;;;5017607;28;20033;-92
2023/07/13 05:29:23;;;;;;;14.20;2.25;;;16.90;99.90;;;;;;5019251;28;20070;-92
2023/07/13 05:31:49;;;;;;;7.50;2.22;;;17.00;99.90;;;;;;5034519;28;20131;-93
2023/07/13 05:34:15;;;;;;;10.32;2.17;;;17.00;99.90;;;;;;5035049;28;20258;-86
2023/07/13 05:36:41;;;;;;;6.22;2.00;;;17.10;99.90;;;;;;5054749;28;20071;-95
2023/07/13 05:39:07;;;;;;;9.15;1.77;;;17.10;99.90;;;;;;5074069;28;20044;-94
2023/07/13 05:41:33;;;;;;;13.50;2.10;;;17.20;99.90;;;;;;5039170;28;20117;-92
2023/07/13 05:43:58;;;;;;;10.50;2.25;;;17.30;99.90;;;;;;5020328;28;20106;-93
2023/07/13 05:46:25;;;;;;;6.43;1.95;;;17.40;99.90;;;;;;5022731;28;20041;-91
2023/07/13 05:48:53;;;;;;;12.57;2.30;;;17.40;99.90;;;;;;5020315;28;20037;-89
2023/07/13 05:51:19;;;;;;;8.98;1.83;;;17.50;99.90;;;;;;5003557;28;20427;-91
2023/07/13 05:53:44;;;;;;;9.23;2.72;;;17.50;99.90;;;;;;5005765;28;20055;-92
2023/07/13 05:56:10;;;;;;;14.73;2.78;;;17.60;99.90;;;;;;5036059;28;20047;-88
2023/07/13 05:58:36;;;;;;;8.50;2.00;;;17.60;99.90;;;;;;5019512;28;20040;-93
2023/07/13 06:01:08;;;;;;;9.23;1.77;;;17.70;99.90;;;;;;5038073;28;20051;-91
2023/07/13 06:03:34;;;;;;;8.52;1.30;;;17.80;99.90;;;;;;5053034;28;20491;-92
2023/07/13 06:06:00;;;;;;;13.85;1.83;;;17.80;99.90;;;;;;5034826;28;20071;-91
2023/07/13 06:08:27;;;;;;;7.85;1.60;;;18.00;99.90;;;;;;5054442;28;20210;-92
2023/07/13 06:10:52;;;;;;;10.35;2.22;;;18.10;99.90;;;;;;5036837;28;20047;-91
2023/07/13 06:13:19;;;;;;;9.15;2.30;;;18.20;99.90;;;;;;5053762;28;20048;-93
2023/07/13 06:15:53;;;;;;;6.05;1.60;;;18.30;99.90;;;;;;5018161;28;20043;-90
2023/07/13 06:18:19;;;;;;;7.13;1.38;;;18.40;99.90;;;;;;5050625;28;20036;-94
2023/07/13 06:20:45;;;;;;;10.10;2.25;;;18.40;99.90;;;;;;5019399;28;20044;-92
2023/07/13 06:23:10;;;;;;;8.35;1.77;;;18.50;99.90;;;;;;5033336;28;20045;-92
2023/07/13 06:25:36;;;;;;;8.07;1.92;;;18.50;99.90;;;;;;5019568;28;20036;-93
2023/07/13 06:28:02;;;;;;;5.05;1.25;;;18.60;99.90;;;;;;5017629;28;20036;-92
2023/07/13 06:30:28;;;;;;;6.18;1.95;;;18.60;99.90;;;;;;5035495;28;20086;-91
2023/07/13 06:32:53;;;;;;;5.57;1.17;;;18.70;99.90;;;;;;5017901;28;20063;-92
2023/07/13 06:35:19;;;;;;;3.88;1.23;;;18.70;99.90;;;;;;5050765;28;20040;-93
2023/07/13 06:37:45;;;;;;;8.70;1.20;;;18.80;99.90;;;;;;5019743;28;20079;-94
2023/07/13 06:40:11;;;;;;;4.65;1.20;;;18.90;99.90;;;;;;5017378;28;20131;-90
2023/07/13 06:42:38;;;;;;;2.47;1.05;;;19.00;99.90;;;;;;5019794;28;20514;-93
2023/07/13 06:45:04;;;;;;;6.85;1.27;;;19.00;99.90;;;;;;5000997;28;20551;-92
2023/07/13 06:47:30;;;;;;;6.35;2.00;;;19.10;99.90;;;;;;5034308;28;20044;-95
2023/07/13 06:49:57;;;;;;;5.93;1.73;;;19.30;99.90;;;;;;5033773;28;20047;-93
2023/07/13 06:52:23;;;;;;;6.35;1.58;;;19.50;99.90;;;;;;5017011;28;20044;-93
2023/07/13 06:54:49;;;;;;;6.18;1.10;;;19.60;99.90;;;;;;5017740;28;20097;-92
2023/07/13 06:57:14;;;;;;;9.18;1.98;;;19.70;99.90;;;;;;5032388;28;20043;-93
2023/07/13 06:59:40;;;;;;;4.97;1.52;;;19.80;99.90;;;;;;5034950;28;20048;-92
2023/07/13 07:02:08;;;;;;;6.45;1.00;;;19.90;99.90;;;;;;5018051;28;20075;-91
2023/07/13 07:04:34;;;;;;;2.40;0.93;;;19.90;99.90;;;;;;5053508;28;20036;-92
2023/07/13 07:07:00;;;;;;;6.40;1.17;;;19.90;99.90;;;;;;5019288;28;20116;-90
2023/07/13 07:09:25;;;;;;;3.35;0.80;;;19.90;99.90;;;;;;5034756;28;20045;-89
2023/07/13 07:11:53;;;;;;;4.20;1.25;;;20.00;99.90;;;;;;5041914;28;20055;-93
2023/07/13 07:14:19;;;;;;;6.10;1.27;;;20.10;99.90;;;;;;5027328;28;20119;-91
2023/07/13 07:16:45;;;;;;;7.03;1.10;;;20.30;99.90;;;;;;5059944;28;20106;-91
2023/07/13 07:19:12;;;;;;;6.72;2.35;;;20.50;99.90;;;;;;5056311;28;20052;-91
2023/07/13 07:21:37;;;;;;;10.05;1.48;;;20.60;99.90;;;;;;5027087;28;20051;-91
2023/07/13 07:24:04;;;;;;;4.28;1.00;;;20.60;99.90;;;;;;5025189;28;20048;-95
2023/07/13 07:26:30;;;;;;;3.53;1.33;;;20.60;99.90;;;;;;5039476;28;20066;-94
2023/07/13 07:28:56;;;;;;;5.13;1.00;;;20.50;99.90;;;;;;5037404;28;20313;-89
2023/07/13 07:31:22;;;;;;;7.75;1.08;;;20.20;99.90;;;;;;5034964;28;20052;-91
2023/07/13 07:33:49;;;;;;;4.53;0.90;;;20.00;99.90;;;;;;5037387;28;20051;-93
2023/07/13 07:36:16;;;;;;;3.17;0.85;;;19.90;99.90;;;;;;5024537;28;20028;-90
2023/07/13 07:38:42;;;;;;;1.95;0.70;;;19.90;99.90;;;;;;5044068;28;20530;-91
2023/07/13 07:41:08;;;;;;;4.13;0.90;;;20.10;99.90;;;;;;5016297;28;20037;-92
2023/07/13 07:43:34;;;;;;;3.55;0.68;;;20.30;99.90;;;;;;5066354;28;20036;-92
2023/07/13 07:45:59;;;;;;;4.82;1.55;;;20.40;99.90;;;;;;5032485;28;20070;-91
2023/07/13 07:48:28;;;;;;;7.30;1.02;;;20.40;99.90;;;;;;5014849;28;20041;-91
2023/07/13 07:50:54;;;;;;;4.50;0.70;;;20.50;99.90;;;;;;5011324;28;20051;-90
2023/07/13 07:53:22;;;;;;;3.45;0.80;;;20.60;99.90;;;;;;5023318;28;20067;-92
2023/07/13 07:55:48;;;;;;;3.90;1.52;;;20.70;99.90;;;;;;5014542;28;20045;-91
2023/07/13 07:58:14;;;;;;;3.30;1.00;;;20.80;99.90;;;;;;5029507;28;20071;-89
2023/07/13 08:00:40;;;;;;;5.57;0.93;;;20.70;99.90;;;;;;5043292;28;20184;-92
2023/07/13 08:03:06;;;;;;;3.10;1.35;;;20.60;99.90;;;;;;5035082;28;20080;-91
2023/07/13 08:05:34;;;;;;;2.88;0.73;;;20.30;99.90;;;;;;5051987;28;20036;-89
2023/07/13 08:08:00;;;;;;;4.40;1.25;;;20.40;99.90;;;;;;5017724;28;20044;-91
2023/07/13 08:10:26;;;;;;;3.08;0.85;;;18.10;99.90;;;;;;5032241;28;20140;-91
2023/07/13 08:12:52;;;;;;;3.78;0.82;;;20.00;99.90;;;;;;4998980;28;20387;-89
2023/07/13 08:15:20;;;;;;;2.10;0.70;;;17.80;99.90;;;;;;4998596;28;20044;-92
2023/07/13 08:17:49;;;;;;;3.20;0.60;;;19.60;99.90;;;;;;5018436;28;20048;-92
2023/07/13 08:20:15;;;;;;;1.98;0.63;;;19.50;99.90;;;;;;5015927;28;20128;-91
2023/07/13 08:22:41;;;;;;;2.72;0.65;;;19.50;99.90;;;;;;5031197;28;20040;-91
2023/07/13 08:25:07;;;;;;;2.78;0.63;;;18.50;99.90;;;;;;5015443;28;20114;-90
2023/07/13 08:27:33;;;;;;;3.10;0.82;;;19.80;99.90;;;;;;5015803;28;20048;-91
2023/07/13 08:29:59;;;;;;;1.75;0.70;;;19.80;99.90;;;;;;5032784;28;20488;-89
2023/07/13 08:32:24;;;;;;;4.43;0.93;;;19.90;99.90;;;;;;5030617;28;20127;-91
2023/07/13 08:34:51;;;;;;;5.53;1.00;;;19.90;99.90;;;;;;5032053;28;20399;-90
2023/07/13 08:37:17;;;;;;;3.20;0.90;;;19.90;99.90;;;;;;5030933;28;20036;-90
2023/07/13 08:39:43;;;;;;;2.35;1.00;;;19.80;99.90;;;;;;5014516;28;20056;-91
2023/07/13 08:42:18;;;;;;;3.25;0.55;;;19.80;99.90;;;;;;5031002;28;20079;-91
2023/07/13 08:45:12;;;;;;;3.15;0.80;;;19.70;99.90;;;;;;5031505;28;20051;-91
2023/07/13 08:47:50;;;;;;;2.08;0.88;;;19.70;99.90;;;;;;5029982;28;20229;-90
2023/07/13 08:50:21;;;;;;;4.00;0.65;;;19.70;99.90;;;;;;5031003;28;20052;-90
2023/07/13 08:52:47;;;;;;;3.13;0.90;;;19.60;99.90;;;;;;5030671;28;20052;-90
2023/07/13 08:55:13;;;;;;;7.13;1.50;;;19.70;99.90;;;;;;5013704;28;20054;-87
2023/07/13 08:57:41;;;;;;;6.57;1.10;;;18.30;99.90;;;;;;5030924;28;20044;-89
2023/07/13 09:00:12;;;;;;;5.20;0.85;;;19.80;99.90;;;;;;5032141;28;20040;-90
2023/07/13 09:02:44;;;;;;;4.63;1.23;;;20.20;99.90;;;;;;5030337;28;20491;-90
2023/07/13 09:05:25;;;;;;;7.03;1.20;;;20.50;99.90;;;;;;5032057;28;20609;-89
2023/07/13 09:07:57;;;;;;;4.35;1.05;;;21.90;99.90;;;;;;5031305;28;20056;-90
2023/07/13 09:10:51;;;;;;;6.23;0.70;;;20.60;99.90;;;;;;5030293;28;20040;-89
2023/07/13 09:13:22;;;;;;;3.90;1.20;;;20.60;99.90;;;;;;5031545;28;20382;-89
2023/07/13 09:15:50;;;;;;;3.35;0.80;;;20.60;99.90;;;;;;5051241;28;20040;-90
2023/07/13 09:18:33;;;;;;;7.32;1.38;;;20.60;99.90;;;;;;5034824;28;20125;-87
2023/07/13 09:21:02;;;;;;;;;;;20.50;99.90;;;;;;5034888;28;20091;-90
2023/07/13 09:23:29;;;;;;;3.42;1.13;;;20.30;99.90;;;;;;5033351;28;20007;-90
2023/07/13 09:26:06;;;;;;;7.03;2.40;;;20.30;99.90;;;;;;5034676;28;20049;-88
2023/07/13 09:28:40;;;;;;;3.80;1.20;;;20.30;99.90;;;;;;5051256;28;20055;-89
2023/07/13 09:31:13;;;;;;;9.45;1.15;;;20.60;99.90;;;;;;5051675;28;20084;-87
2023/07/13 09:33:45;;;;;;;4.28;1.05;;;20.90;99.90;;;;;;5051253;28;20056;-90
2023/07/13 09:36:30;;;;;;;6.15;1.35;;;20.00;99.90;;;;;;5017569;28;20051;-88
2023/07/13 09:39:13;;;;;;;7.20;0.90;;;23.40;99.90;;;;;;5036040;28;20067;-87
2023/07/13 09:42:06;;;;;;;1.20;0.73;;;21.80;99.90;;;;;;5034348;28;20048;-90
2023/07/13 09:44:38;;;;;;;3.55;0.65;;;21.80;99.90;;;;;;5051251;28;20048;-90
2023/07/13 09:47:16;;;;;;;2.20;0.82;;;21.60;99.90;;;;;;5034375;28;20293;-89
2023/07/13 09:49:44;;;;;;;4.90;0.90;;;21.60;99.90;;;;;;5035143;28;20395;-91
2023/07/13 09:52:15;;;;;;;2.53;0.65;;;21.50;99.90;;;;;;5035603;28;20045;-90
2023/07/13 09:54:48;;;;;;;6.43;1.00;;;21.50;99.90;;;;;;5051212;28;20049;-89
2023/07/13 09:57:16;;;;;;;;;;;21.50;99.90;;;;;;5035401;28;20086;-90
2023/07/13 09:59:46;;;;;;;3.58;0.77;;;21.40;99.90;;;;;;5017335;28;19920;-89
2023/07/13 10:02:35;;;;;;;1.88;0.77;;;21.40;99.90;;;;;;5038391;28;20036;-93
2023/07/13 10:05:15;;;;;;;2.58;0.95;;;21.30;99.90;;;;;;5056698;28;20040;-90
2023/07/13 10:07:44;;;;;;;3.15;0.60;;;21.20;99.90;;;;;;5037374;28;20041;-90
2023/07/13 10:10:22;;;;;;;5.68;0.70;;;21.00;99.90;;;;;;5033950;28;20071;-89
2023/07/13 10:12:50;;;;;;;3.63;0.50;;;21.00;99.90;;;;;;5049397;28;20537;-88
2023/07/13 10:15:23;;;;;;;3.50;0.80;;;20.90;99.90;;;;;;5033147;28;20040;-91
2023/07/13 10:17:55;;;;;;;2.67;0.50;;;20.90;99.90;;;;;;5050613;28;20060;-89
2023/07/13 10:20:21;;;;;;;1.63;0.63;;;21.10;99.90;;;;;;5033311;28;20426;-89
2023/07/13 10:22:57;;;;;;;1.50;0.60;;;21.40;99.90;;;;;;5017310;28;20101;-87
2023/07/13 10:25:31;;;;;;;1.55;0.40;;;21.60;99.90;;;;;;5048236;28;20044;-87
2023/07/13 10:28:11;;;;;;;2.70;0.40;;;21.70;99.90;;;;;;5048944;28;20043;-88
2023/07/13 10:30:42;;;;;;;1.25;0.20;;;21.80;99.90;;;;;;5049414;28;20044;-88
2023/07/13 10:33:13;;;;;;;5.25;0.60;;;22.10;99.40;;;;;;5032277;28;20428;-87
2023/07/13 10:35:43;;;;;;;0.93;0.50;;;22.50;99.40;;;;;;5049175;28;20514;-87
2023/07/13 10:38:15;;;;;;;2.38;0.52;;;22.80;98.90;;;;;;5032155;28;20455;-87
2023/07/13 10:40:54;;;;;;;4.70;0.75;;;23.10;98.20;;;;;;5031826;28;20063;-88
2023/07/13 10:43:30;;;;;;;1.52;0.40;;;23.20;97.30;;;;;;5049302;28;20059;-87
2023/07/13 10:45:56;;;;;;;1.52;0.38;;;23.10;97.40;;;;;;5032408;28;20377;-87
2023/07/13 10:48:23;;;;;;;2.30;1.23;;;23.00;97.00;;;;;;4999758;28;20075;-88
2023/07/13 10:50:52;;;;;;;1.58;0.30;;;22.90;97.00;;;;;;5016504;28;20037;-89
2023/07/13 10:53:42;;;;;;;2.00;0.30;;;23.00;96.60;;;;;;5032319;28;20076;-89
2023/07/13 10:56:13;;;;;;;1.60;0.38;;;23.30;96.20;;;;;;5033474;28;20044;-90
2023/07/13 10:58:42;;;;;;;2.73;0.43;;;23.50;96.30;;;;;;5032548;28;20094;-89
2023/07/13 11:01:15;;;;;;;1.85;0.50;;;23.70;95.80;;;;;;5049567;28;20052;-88
2023/07/13 11:03:43;;;;;;;2.28;0.45;;;23.90;94.90;;;;;;5033429;28;20388;-91
2023/07/13 11:06:11;;;;;;;2.30;0.57;;;24.00;94.90;;;;;;5033102;28;20060;-90
2023/07/13 11:08:47;;;;;;;2.15;0.80;;;24.10;94.70;;;;;;5032935;28;20041;-91
2023/07/13 11:11:27;;;;;;;2.33;0.40;;;24.30;93.40;;;;;;5033397;28;20048;-91
2023/07/13 11:13:53;;;;;;;1.55;0.30;;;24.40;93.40;;;;;;5033524;28;20151;-92
2023/07/13 11:16:24;;;;;;;3.22;0.40;;;24.70;93.80;;;;;;5032849;28;20634;-91
2023/07/13 11:19:12;;;;;;;2.78;0.35;;;23.50;92.90;;;;;;5033072;28;20052;-92
2023/07/13 11:22:10;;;;;;;2.22;0.57;;;24.80;93.20;;;;;;5020174;28;20083;-92
2023/07/13 11:24:57;;;;;;;2.95;1.50;;;24.60;91.60;;;;;;5028201;28;20066;-93
2023/07/13 11:27:42;;;;;;;1.48;0.55;;;24.50;91.80;;;;;;5033805;28;20040;-93
2023/07/13 11:30:44;;;;;;;1.58;0.80;;;24.40;91.90;;;;;;5035167;28;20055;-92
2023/07/13 11:33:17;;;;;;;1.65;0.50;;;24.30;91.50;;;;;;5005474;28;20053;-92
2023/07/13 11:36:00;;;;;;;2.00;0.45;;;24.30;91.50;;;;;;5059895;28;20040;-92
2023/07/13 11:38:40;;;;;;;0.82;0.40;;;23.10;91.30;;;;;;5045861;28;20440;-93
2023/07/13 11:41:15;;;;;;;4.70;0.60;;;24.30;91.00;;;;;;5043520;28;20059;-92
2023/07/13 11:43:42;;;;;;;2.15;0.93;;;24.10;91.10;;;;;;5061450;28;20047;-91
2023/07/13 11:46:22;;;;;;;4.05;0.65;;;23.90;91.00;;;;;;5042492;28;20135;-91
2023/07/13 11:48:50;;;;;;;2.13;0.65;;;23.70;90.40;;;;;;5040125;28;20075;-92
2023/07/13 11:51:27;;;;;;;3.22;0.52;;;23.60;91.10;;;;;;5005361;28;20036;-89
2023/07/13 11:53:56;;;;;;;2.10;0.47;;;23.70;91.30;;;;;;5049954;28;20076;-91
2023/07/13 11:56:23;;;;;;;1.45;0.35;;;23.70;91.30;;;;;;5049309;28;20127;-90
2023/07/13 11:58:55;;;;;;;1.45;0.50;;;23.50;91.20;;;;;;5032941;28;20083;-92
2023/07/13 12:01:32;;;;;;;5.18;0.60;;;23.50;91.00;;;;;;5033591;28;20101;-93
2023/07/13 12:04:01;;;;;;;1.73;0.38;;;23.50;91.10;;;;;;5040828;28;20143;-92
2023/07/13 12:06:40;;;;;;;2.15;0.73;;;23.50;91.20;;;;;;5042302;28;20044;-93
2023/07/13 12:09:15;;;;;;;3.88;0.60;;;23.00;91.50;;;;;;5041020;28;20123;-92
2023/07/13 12:11:42;;;;;;;4.15;0.85;;;24.00;91.70;;;;;;5055844;28;20049;-92
2023/07/13 12:14:19;;;;;;;2.75;0.47;;;24.20;91.00;;;;;;5042326;28;20083;-94
2023/07/13 12:16:48;;;;;;;4.03;0.50;;;24.10;90.40;;;;;;5022430;28;20055;-94
2023/07/13 12:19:23;;;;;;;4.05;0.40;;;24.00;90.30;;;;;;5036240;28;20040;-93
2023/07/13 12:21:50;;;;;;;4.32;0.60;;;22.90;90.00;;;;;;5052171;28;20044;-95
2023/07/13 12:24:22;;;;;;;5.03;0.60;;;23.70;90.10;;;;;;5021293;28;20048;-91
2023/07/13 12:27:00;;;;;;;3.20;0.60;;;23.60;90.20;;;;;;5055348;28;20160;-95
2023/07/13 12:29:27;;;;;;;2.60;0.70;;;23.50;90.20;;;;;;5038982;28;20053;-94
2023/07/13 12:31:52;;;;;;;1.83;0.57;;;23.50;90.40;;;;;;5038892;28;20041;-92
2023/07/13 12:34:21;;;;;;;3.03;0.50;;;23.40;90.50;;;;;;5054478;28;20342;-94
2023/07/13 12:37:01;;;;;;;7.97;0.73;;;23.20;90.30;;;;;;5038716;28;20091;-93
2023/07/13 12:39:44;;;;;;;1.13;0.40;;;23.10;89.80;;;;;;5037478;28;20052;-93
2023/07/13 12:42:28;;;;;;;2.58;0.80;;;21.60;90.00;;;;;;5054151;28;20049;-92
2023/07/13 12:45:01;;;;;;;2.63;0.47;;;22.50;90.50;;;;;;5054598;28;20048;-93
2023/07/13 12:47:28;;;;;;;2.72;0.70;;;22.80;91.30;;;;;;5041532;28;20025;-93
2023/07/13 12:50:01;;;;;;;0.98;0.38;;;22.90;91.20;;;;;;5058906;28;20037;-92
2023/07/13 12:52:32;;;;;;;1.00;0.40;;;22.80;90.90;;;;;;5012127;28;20084;-94
2023/07/13 12:55:14;;;;;;;0.82;0.28;;;22.70;90.50;;;;;;5045972;28;20063;-92